createdAt,value
2023-02-26T00:01:25.743Z,29.55
2023-02-26T00:03:54.521Z,29.30
2023-02-26T00:06:21.549Z,29.00
2023-02-26T00:08:48.456Z,30.02
2023-02-26T00:11:16.143Z,29.84
2023-02-26T00:13:44.516Z,29.08
2023-02-26T00:16:34.731Z,28.29
2023-02-26T00:19:04.642Z,29.15
2023-02-26T00:21:32.429Z,28.83
2023-02-26T00:24:00.555Z,28.96
2023-02-26T00:26:30.301Z,29.34
2023-02-26T00:28:57.666Z,29.32
2023-02-26T00:31:24.976Z,28.92
2023-02-26T00:33:56.584Z,28.54
2023-02-26T00:36:25.388Z,29.72
2023-02-26T00:39:19.905Z,29.41
2023-02-26T00:41:48.118Z,29.19
2023-02-26T00:44:15.147Z,28.69
2023-02-26T00:46:49.820Z,29.32
2023-02-26T00:49:29.321Z,29.29
2023-02-26T00:52:01.799Z,28.89
2023-02-26T00:54:30.733Z,28.58
2023-02-26T00:56:59.427Z,28.90
2023-02-26T00:59:26.651Z,29.12
2023-02-26T01:01:54.421Z,29.36
2023-02-26T01:04:24.033Z,29.04
2023-02-26T01:06:54.644Z,28.91
2023-02-26T01:09:28.843Z,28.79
2023-02-26T01:12:01.060Z,28.85
2023-02-26T01:14:28.999Z,28.85
2023-02-26T01:17:33.944Z,28.22
2023-02-26T01:20:20.766Z,28.11
2023-02-26T01:23:12.338Z,28.33
2023-02-26T01:25:50.207Z,27.99
2023-02-26T01:28:17.802Z,27.58
2023-02-26T01:30:46.266Z,27.61
2023-02-26T01:33:30.029Z,27.35
2023-02-26T01:36:06.970Z,27.87
2023-02-26T01:38:43.342Z,27.75
2023-02-26T01:41:37.386Z,27.49
2023-02-26T01:44:08.179Z,27.69
2023-02-26T01:46:43.660Z,28.11
2023-02-26T01:49:15.918Z,27.59
2023-02-26T01:51:56.772Z,27.66
2023-02-26T01:54:28.254Z,27.74
2023-02-26T01:57:21.501Z,27.58
2023-02-26T01:59:51.544Z,27.33
2023-02-26T02:02:23.563Z,27.19
2023-02-26T02:04:51.319Z,27.56
2023-02-26T02:07:19.188Z,26.97
2023-02-26T02:09:47.662Z,27.22
2023-02-26T02:12:29.267Z,27.42
2023-02-26T02:15:11.896Z,27.12
2023-02-26T02:18:10.491Z,27.50
2023-02-26T02:20:52.442Z,27.54
2023-02-26T02:23:45.117Z,27.72
2023-02-26T02:26:44.354Z,27.17
2023-02-26T02:29:32.122Z,27.02
2023-02-26T02:32:10.964Z,27.15
2023-02-26T02:34:46.939Z,26.85
2023-02-26T02:37:35.631Z,26.21
2023-02-26T02:40:25.626Z,26.33
2023-02-26T02:42:55.792Z,26.31
2023-02-26T02:45:58.480Z,26.24
2023-02-26T02:48:33.172Z,25.89
2023-02-26T02:51:26.243Z,25.86
2023-02-26T02:54:00.174Z,26.23
2023-02-26T02:56:34.862Z,25.93
2023-02-26T02:59:10.966Z,25.90
2023-02-26T03:01:40.434Z,26.46
2023-02-26T03:04:15.118Z,26.32
2023-02-26T03:06:42.983Z,25.93
2023-02-26T03:09:11.134Z,25.52
2023-02-26T03:11:41.523Z,26.87
2023-02-26T03:14:10.313Z,26.59
2023-02-26T03:17:06.405Z,25.69
2023-02-26T03:19:48.784Z,25.68
2023-02-26T03:22:34.969Z,25.62
2023-02-26T03:25:02.166Z,25.30
2023-02-26T03:27:38.081Z,24.96
2023-02-26T03:30:11.439Z,24.75
2023-02-26T03:33:05.946Z,25.64
2023-02-26T03:35:44.462Z,25.90
2023-02-26T03:38:17.668Z,25.27
2023-02-26T03:40:51.061Z,25.37
2023-02-26T03:43:45.680Z,26.64
2023-02-26T03:46:18.172Z,25.86
2023-02-26T03:48:48.909Z,25.74
2023-02-26T03:51:15.905Z,25.27
2023-02-26T03:54:20.139Z,25.24
2023-02-26T03:56:54.305Z,25.29
2023-02-26T03:59:39.749Z,25.30
2023-02-26T04:02:39.021Z,25.52
2023-02-26T04:05:21.359Z,25.69
2023-02-26T04:07:49.747Z,25.89
2023-02-26T04:10:21.621Z,25.74
2023-02-26T04:12:50.600Z,26.07
2023-02-26T04:15:17.324Z,25.68
2023-02-26T04:17:44.081Z,26.55
2023-02-26T04:20:11.780Z,26.49
2023-02-26T04:22:39.426Z,25.85
2023-02-26T04:25:06.626Z,25.73
2023-02-26T04:27:33.708Z,25.49
2023-02-26T04:30:01.490Z,25.14
2023-02-26T04:32:29.911Z,25.38
2023-02-26T04:34:57.715Z,25.37
2023-02-26T04:37:24.649Z,25.70
2023-02-26T04:39:51.716Z,25.15
2023-02-26T04:42:18.669Z,25.90
2023-02-26T04:44:45.523Z,26.06
2023-02-26T04:47:13.631Z,26.95
2023-02-26T04:49:40.709Z,26.42
2023-02-26T04:52:08.008Z,26.37
2023-02-26T04:54:35.003Z,26.14
2023-02-26T04:57:01.901Z,26.08
2023-02-26T04:59:28.669Z,26.28
2023-02-26T05:01:57.115Z,25.99
2023-02-26T05:04:23.887Z,25.95
2023-02-26T05:06:54.218Z,26.61
2023-02-26T05:09:21.347Z,26.27
2023-02-26T05:11:48.983Z,26.04
2023-02-26T05:14:17.354Z,25.82
2023-02-26T05:16:47.442Z,26.29
2023-02-26T05:19:14.207Z,26.67
2023-02-26T05:21:41.073Z,26.88
2023-02-26T05:24:08.172Z,27.06
2023-02-26T05:26:34.986Z,26.70
2023-02-26T05:29:02.458Z,27.00
2023-02-26T05:31:30.009Z,27.66
2023-02-26T05:33:57.050Z,26.84
2023-02-26T05:36:24.062Z,26.71
2023-02-26T05:38:51.159Z,26.44
2023-02-26T05:41:17.907Z,27.24
2023-02-26T05:43:44.689Z,26.80
2023-02-26T05:46:11.993Z,26.77
2023-02-26T05:48:38.706Z,26.90
2023-02-26T05:51:06.153Z,26.97
2023-02-26T05:53:32.927Z,26.12
2023-02-26T05:55:59.811Z,26.54
2023-02-26T05:58:26.446Z,25.51
2023-02-26T06:00:53.382Z,26.16
2023-02-26T06:03:20.152Z,25.50
2023-02-26T06:05:47.150Z,25.61
2023-02-26T06:08:15.604Z,26.09
2023-02-26T06:10:42.809Z,25.26
2023-02-26T06:13:09.663Z,24.87
2023-02-26T06:15:36.446Z,25.09
2023-02-26T06:18:03.298Z,25.07
2023-02-26T06:20:30.328Z,25.03
2023-02-26T06:22:57.131Z,24.98
2023-02-26T06:25:23.894Z,25.00
2023-02-26T06:27:50.847Z,23.97
2023-02-26T06:30:18.334Z,24.38
2023-02-26T06:32:45.325Z,23.86
2023-02-26T06:35:12.054Z,23.92
2023-02-26T06:37:38.848Z,24.06
2023-02-26T06:40:06.380Z,23.87
2023-02-26T06:42:33.084Z,23.44
2023-02-26T06:44:59.791Z,23.20
2023-02-26T06:47:26.628Z,23.17
2023-02-26T06:49:53.343Z,23.10
2023-02-26T06:52:20.208Z,22.51
2023-02-26T06:54:46.928Z,23.08
2023-02-26T06:57:13.817Z,22.86
2023-02-26T06:59:40.510Z,22.24
2023-02-26T07:02:07.348Z,22.44
2023-02-26T07:04:34.093Z,22.67
2023-02-26T07:07:00.863Z,22.48
2023-02-26T07:09:27.580Z,22.31
2023-02-26T07:11:54.318Z,22.75
2023-02-26T07:14:21.463Z,22.43
2023-02-26T07:16:48.288Z,22.07
2023-02-26T07:19:15.266Z,22.03
2023-02-26T07:21:43.977Z,22.39
2023-02-26T07:24:10.719Z,21.71
2023-02-26T07:26:39.307Z,21.93
2023-02-26T07:29:06.219Z,21.85
2023-02-26T07:31:33.155Z,21.80
2023-02-26T07:33:59.940Z,22.22
2023-02-26T07:36:27.193Z,22.34
2023-02-26T07:38:54.192Z,21.81
2023-02-26T07:41:21.143Z,21.88
2023-02-26T07:43:47.889Z,21.39
2023-02-26T07:46:14.708Z,21.84
2023-02-26T07:48:41.527Z,21.84
2023-02-26T07:51:08.547Z,21.69
2023-02-26T07:53:35.485Z,21.57
2023-02-26T07:56:02.431Z,21.32
2023-02-26T07:58:30.114Z,21.37
2023-02-26T08:00:58.596Z,20.94
2023-02-26T08:03:25.341Z,21.68
2023-02-26T08:05:52.115Z,21.42
2023-02-26T08:08:18.907Z,21.07
2023-02-26T08:10:45.571Z,20.53
2023-02-26T08:13:12.281Z,20.38
2023-02-26T08:15:39.165Z,20.37
2023-02-26T08:18:05.935Z,20.58
2023-02-26T08:20:32.658Z,20.27
2023-02-26T08:22:59.417Z,20.75
2023-02-26T08:25:26.443Z,20.28
2023-02-26T08:27:53.487Z,20.62
2023-02-26T08:30:20.689Z,21.04
2023-02-26T08:32:47.471Z,20.91
2023-02-26T08:35:14.317Z,20.28
2023-02-26T08:37:41.061Z,19.69
2023-02-26T08:40:13.491Z,19.90
2023-02-26T08:42:42.668Z,20.84
2023-02-26T08:45:10.052Z,20.21
2023-02-26T08:47:53.989Z,20.45
2023-02-26T08:50:24.887Z,20.24
2023-02-26T08:52:53.183Z,19.93
2023-02-26T08:55:21.729Z,19.57
2023-02-26T08:57:48.701Z,19.56
2023-02-26T09:00:19.398Z,19.75
2023-02-26T09:02:46.387Z,19.07
2023-02-26T09:05:15.389Z,19.39
2023-02-26T09:07:43.743Z,19.64
2023-02-26T09:10:11.655Z,19.15
2023-02-26T09:12:38.760Z,18.38
2023-02-26T09:15:06.884Z,19.11
2023-02-26T09:17:34.193Z,18.50
2023-02-26T09:20:01.409Z,19.02
2023-02-26T09:22:28.416Z,18.20
2023-02-26T09:24:55.200Z,18.57
2023-02-26T09:27:22.336Z,18.18
2023-02-26T09:29:49.125Z,18.67
2023-02-26T09:32:15.988Z,18.96
2023-02-26T09:34:42.848Z,18.66
2023-02-26T09:37:09.999Z,18.84
2023-02-26T09:39:37.026Z,17.98
2023-02-26T09:42:49.375Z,17.75
2023-02-26T09:45:27.210Z,17.76
2023-02-26T09:47:55.109Z,17.25
2023-02-26T09:50:26.479Z,17.53
2023-02-26T09:53:20.470Z,18.21
2023-02-26T09:55:50.686Z,18.80
2023-02-26T09:58:26.514Z,17.91
2023-02-26T10:01:08.208Z,18.16
2023-02-26T10:03:53.179Z,18.50
2023-02-26T10:06:59.310Z,18.17
2023-02-26T10:09:47.146Z,18.63
2023-02-26T10:12:19.317Z,18.41
2023-02-26T10:14:55.099Z,18.12
2023-02-26T10:17:31.638Z,18.22
2023-02-26T10:20:06.285Z,18.51
2023-02-26T10:22:40.022Z,17.81
2023-02-26T10:25:10.812Z,17.23
2023-02-26T10:27:45.015Z,17.48
2023-02-26T10:30:41.863Z,17.32
2023-02-26T10:33:38.753Z,17.95
2023-02-26T10:36:12.766Z,18.12
2023-02-26T10:38:40.517Z,17.42
2023-02-26T10:41:15.829Z,18.57
2023-02-26T10:43:48.010Z,18.24
2023-02-26T10:46:20.464Z,18.32
2023-02-26T10:49:04.149Z,17.65
2023-02-26T10:51:39.034Z,17.63
2023-02-26T10:54:30.359Z,17.82
2023-02-26T10:56:57.114Z,17.01
2023-02-26T10:59:24.390Z,17.47
2023-02-26T11:01:52.687Z,16.95
2023-02-26T11:04:26.178Z,16.66
2023-02-26T11:06:59.475Z,17.57
2023-02-26T11:09:37.863Z,18.46
2023-02-26T11:12:14.790Z,18.34
2023-02-26T11:14:46.961Z,18.93
2023-02-26T11:17:29.654Z,18.21
2023-02-26T11:20:01.036Z,18.23
2023-02-26T11:22:32.310Z,19.31
2023-02-26T11:24:59.739Z,19.12
2023-02-26T11:27:36.938Z,18.50
2023-02-26T11:30:11.970Z,18.27
2023-02-26T11:32:39.596Z,18.73
2023-02-26T11:35:10.340Z,18.34
2023-02-26T11:37:42.129Z,18.36
2023-02-26T11:40:22.213Z,18.70
2023-02-26T11:43:00.606Z,18.33
2023-02-26T11:45:28.514Z,18.02
2023-02-26T11:48:06.463Z,17.72
2023-02-26T11:50:43.612Z,17.62
2023-02-26T11:53:47.544Z,18.40
2023-02-26T11:56:20.570Z,19.34
2023-02-26T11:58:52.895Z,18.55
2023-02-26T12:01:27.204Z,18.14
2023-02-26T12:03:59.222Z,18.26
2023-02-26T12:06:26.008Z,18.53
2023-02-26T12:08:54.087Z,18.45
2023-02-26T12:11:43.861Z,19.27
2023-02-26T12:14:35.788Z,18.64
2023-02-26T12:17:17.371Z,18.79
2023-02-26T12:20:15.428Z,18.84
2023-02-26T12:23:00.941Z,18.65
2023-02-26T12:25:27.811Z,19.50
2023-02-26T12:28:26.744Z,19.32
2023-02-26T12:31:02.675Z,20.64
2023-02-26T12:34:08.155Z,20.69
2023-02-26T12:37:11.959Z,20.75
2023-02-26T12:40:01.215Z,23.25
2023-02-26T12:42:49.219Z,22.21
2023-02-26T12:45:55.812Z,20.90
2023-02-26T12:48:32.794Z,21.70
2023-02-26T12:51:22.354Z,21.47
2023-02-26T12:54:07.467Z,20.25
2023-02-26T12:56:47.500Z,20.54
2023-02-26T12:59:48.299Z,20.69
2023-02-26T13:02:43.110Z,21.02
2023-02-26T13:05:40.320Z,20.17
2023-02-26T13:08:09.599Z,20.72
2023-02-26T13:10:49.162Z,20.29
2023-02-26T13:13:21.424Z,19.82
2023-02-26T13:15:57.120Z,20.72
2023-02-26T13:18:31.198Z,20.20
2023-02-26T13:21:07.462Z,20.71
2023-02-26T13:23:46.368Z,21.07
2023-02-26T13:26:14.700Z,20.83
2023-02-26T13:28:45.762Z,21.06
2023-02-26T13:31:21.723Z,20.58
2023-02-26T13:33:50.749Z,20.90
2023-02-26T13:36:20.774Z,19.47
2023-02-26T13:38:57.776Z,19.36
2023-02-26T13:41:43.954Z,19.97
2023-02-26T13:44:32.083Z,20.29
2023-02-26T13:47:21.038Z,19.98
2023-02-26T13:49:59.610Z,20.22
2023-02-26T13:52:32.241Z,20.28
2023-02-26T13:54:59.638Z,19.50
2023-02-26T13:57:34.746Z,19.66
2023-02-26T14:00:12.727Z,19.66
2023-02-26T14:02:51.078Z,19.31
2023-02-26T14:05:36.140Z,19.63
2023-02-26T14:08:21.018Z,19.69
2023-02-26T14:11:24.860Z,20.14
2023-02-26T14:14:07.239Z,20.31
2023-02-26T14:16:40.939Z,20.29
2023-02-26T14:19:13.973Z,20.74
2023-02-26T14:22:19.632Z,24.53
2023-02-26T14:24:55.246Z,20.70
2023-02-26T14:27:24.042Z,21.89
2023-02-26T14:29:53.733Z,19.49
2023-02-26T14:32:31.421Z,19.31
2023-02-26T14:35:10.335Z,21.66
2023-02-26T14:37:40.088Z,21.30
2023-02-26T14:40:17.998Z,21.40
2023-02-26T14:42:52.272Z,20.19
2023-02-26T14:45:30.654Z,21.01
2023-02-26T14:48:00.747Z,20.14
2023-02-26T14:50:39.549Z,21.14
2023-02-26T14:53:30.696Z,20.73
2023-02-26T14:56:29.705Z,20.63
2023-02-26T14:59:22.731Z,20.24
2023-02-26T15:02:01.286Z,19.92
2023-02-26T15:04:47.305Z,19.73
2023-02-26T15:07:59.037Z,20.47
2023-02-26T15:10:55.107Z,20.51
2023-02-26T15:13:28.826Z,20.41
2023-02-26T15:16:04.537Z,20.58
2023-02-26T15:18:59.815Z,20.09
2023-02-26T15:21:35.139Z,20.86
2023-02-26T15:24:04.112Z,20.34
2023-02-26T15:26:42.990Z,21.12
2023-02-26T15:29:13.636Z,20.60
2023-02-26T15:31:53.342Z,20.33
2023-02-26T15:34:21.718Z,20.57
2023-02-26T15:36:53.498Z,21.09
2023-02-26T15:39:23.861Z,21.01
2023-02-26T15:41:52.690Z,21.94
2023-02-26T15:44:31.248Z,22.80
2023-02-26T15:47:03.508Z,23.60
2023-02-26T15:49:35.756Z,23.39
2023-02-26T15:52:04.480Z,22.70
2023-02-26T15:55:06.049Z,23.30
2023-02-26T15:57:33.021Z,23.17
2023-02-26T16:00:16.573Z,23.36
2023-02-26T16:02:45.796Z,22.98
2023-02-26T16:05:14.765Z,23.12
2023-02-26T16:07:42.044Z,23.15
2023-02-26T16:10:17.842Z,23.92
2023-02-26T16:12:49.214Z,23.76
2023-02-26T16:15:31.670Z,23.61
2023-02-26T16:18:00.519Z,25.38
2023-02-26T16:20:32.085Z,24.34
2023-02-26T16:23:04.075Z,23.63
2023-02-26T16:25:35.699Z,24.08
2023-02-26T16:28:06.028Z,24.23
2023-02-26T16:30:38.788Z,25.01
2023-02-26T16:33:12.111Z,25.46
2023-02-26T16:35:43.970Z,25.15
2023-02-26T16:38:20.997Z,25.34
2023-02-26T16:40:57.632Z,25.79
2023-02-26T16:43:35.386Z,25.64
2023-02-26T16:46:05.385Z,26.31
2023-02-26T16:48:47.686Z,27.02
2023-02-26T16:51:25.938Z,27.29
2023-02-26T16:54:15.365Z,26.41
2023-02-26T16:56:43.220Z,26.85
2023-02-26T16:59:30.445Z,27.49
2023-02-26T17:02:05.581Z,27.01
2023-02-26T17:04:36.088Z,26.67
2023-02-26T17:07:14.626Z,26.34
2023-02-26T17:09:49.394Z,25.82
2023-02-26T17:12:28.509Z,26.50
2023-02-26T17:14:57.835Z,27.16
2023-02-26T17:17:25.762Z,27.08
2023-02-26T17:19:53.103Z,26.54
2023-02-26T17:22:29.037Z,26.23
2023-02-26T17:24:56.137Z,26.31
2023-02-26T17:27:33.935Z,26.63
2023-02-26T17:30:04.349Z,26.38
2023-02-26T17:32:31.849Z,26.37
2023-02-26T17:34:59.395Z,26.58
2023-02-26T17:37:33.411Z,26.92
2023-02-26T17:40:00.612Z,26.84
2023-02-26T17:42:27.421Z,26.99
2023-02-26T17:44:56.765Z,28.29
2023-02-26T17:47:26.794Z,27.06
2023-02-26T17:49:54.289Z,27.07
2023-02-26T17:52:21.197Z,27.19
2023-02-26T17:54:48.059Z,27.03
2023-02-26T17:57:22.884Z,27.18
2023-02-26T17:59:49.833Z,27.28
2023-02-26T18:02:27.297Z,27.20
2023-02-26T18:04:54.657Z,27.49
2023-02-26T18:07:23.528Z,27.56
2023-02-26T18:09:50.484Z,27.51
2023-02-26T18:12:20.680Z,27.74
2023-02-26T18:14:48.168Z,28.07
2023-02-26T18:17:20.716Z,28.12
2023-02-26T18:19:49.513Z,28.49
2023-02-26T18:22:18.897Z,28.72
2023-02-26T18:24:46.412Z,28.75
2023-02-26T18:27:19.484Z,28.54
2023-02-26T18:29:47.023Z,28.65
2023-02-26T18:32:17.070Z,28.63
2023-02-26T18:34:44.564Z,28.80
2023-02-26T18:37:17.851Z,28.82
2023-02-26T18:39:44.947Z,30.18
2023-02-26T18:42:18.781Z,29.55
2023-02-26T18:44:45.589Z,29.08
2023-02-26T18:47:12.653Z,29.83
2023-02-26T18:49:39.374Z,29.53
2023-02-26T18:52:06.148Z,29.65
2023-02-26T18:54:32.926Z,29.50
2023-02-26T18:56:59.570Z,29.13
2023-02-26T18:59:26.404Z,28.94
2023-02-26T19:01:53.466Z,28.98
2023-02-26T19:04:20.232Z,29.35
2023-02-26T19:06:48.085Z,29.66
2023-02-26T19:09:14.950Z,29.44
2023-02-26T19:11:42.604Z,29.66
2023-02-26T19:14:09.481Z,29.85
2023-02-26T19:16:39.230Z,29.79
2023-02-26T19:19:07.071Z,30.08
2023-02-26T19:21:39.273Z,30.25
2023-02-26T19:24:08.969Z,30.27
2023-02-26T19:26:36.542Z,30.39
2023-02-26T19:29:05.912Z,30.17
2023-02-26T19:31:33.246Z,30.28
2023-02-26T19:34:00.142Z,30.31
2023-02-26T19:36:27.648Z,30.26
2023-02-26T19:38:54.366Z,30.03
2023-02-26T19:41:21.087Z,30.09
2023-02-26T19:43:48.075Z,30.32
2023-02-26T19:46:15.837Z,29.70
2023-02-26T19:48:43.258Z,30.01
2023-02-26T19:51:10.108Z,30.16
2023-02-26T19:53:37.248Z,30.95
2023-02-26T19:56:05.602Z,30.83
2023-02-26T19:58:34.513Z,30.50
2023-02-26T20:01:03.096Z,30.65
2023-02-26T20:03:30.674Z,30.41
2023-02-26T20:05:58.204Z,31.00
2023-02-26T20:08:27.764Z,31.35
2023-02-26T20:10:56.788Z,32.34
2023-02-26T20:13:26.890Z,32.56
2023-02-26T20:15:53.757Z,31.65
2023-02-26T20:18:20.651Z,31.58
2023-02-26T20:20:47.824Z,31.19
2023-02-26T20:23:14.561Z,32.57
2023-02-26T20:25:43.414Z,32.80
2023-02-26T20:28:11.003Z,32.33
2023-02-26T20:30:37.690Z,32.03
2023-02-26T20:33:04.839Z,32.31
2023-02-26T20:35:31.685Z,34.04
2023-02-26T20:37:58.493Z,33.17
2023-02-26T20:40:25.221Z,32.57
2023-02-26T20:42:52.531Z,32.08
2023-02-26T20:45:19.407Z,32.86
2023-02-26T20:47:46.155Z,32.27
2023-02-26T20:50:13.018Z,32.98
2023-02-26T20:52:39.896Z,33.10
2023-02-26T20:55:07.092Z,33.29
2023-02-26T20:57:35.410Z,32.55
2023-02-26T21:00:10.269Z,32.39
2023-02-26T21:02:38.637Z,31.87
2023-02-26T21:05:06.300Z,32.71
2023-02-26T21:07:33.542Z,33.47
2023-02-26T21:10:00.291Z,32.62
2023-02-26T21:12:31.469Z,32.65
2023-02-26T21:14:58.220Z,32.61
2023-02-26T21:17:26.485Z,32.90
2023-02-26T21:19:53.446Z,33.47
2023-02-26T21:22:20.917Z,33.17
2023-02-26T21:24:47.861Z,33.27
2023-02-26T21:27:16.782Z,33.12
2023-02-26T21:29:44.098Z,33.42
2023-02-26T21:32:11.436Z,33.92
2023-02-26T21:34:38.342Z,34.19
2023-02-26T21:37:09.391Z,33.76
2023-02-26T21:39:40.507Z,34.19
2023-02-26T21:42:10.607Z,34.31
2023-02-26T21:44:37.528Z,34.45
2023-02-26T21:47:05.042Z,34.74
2023-02-26T21:49:32.287Z,33.99
2023-02-26T21:52:00.487Z,34.12
2023-02-26T21:54:27.532Z,34.59
2023-02-26T21:56:54.486Z,33.92
2023-02-26T21:59:23.214Z,34.48
2023-02-26T22:01:50.818Z,34.56
2023-02-26T22:04:18.339Z,34.64
2023-02-26T22:06:45.444Z,34.19
2023-02-26T22:09:12.484Z,34.11
2023-02-26T22:11:39.577Z,34.25
2023-02-26T22:14:06.363Z,33.80
2023-02-26T22:16:33.330Z,33.55
2023-02-26T22:19:00.002Z,34.07
2023-02-26T22:21:27.181Z,34.62
2023-02-26T22:23:54.192Z,34.75
2023-02-26T22:26:21.307Z,35.60
2023-02-26T22:28:48.163Z,34.47
2023-02-26T22:31:15.018Z,34.65
2023-02-26T22:33:41.798Z,35.27
2023-02-26T22:36:08.540Z,34.95
2023-02-26T22:38:35.498Z,34.78
2023-02-26T22:41:02.280Z,34.80
2023-02-26T22:43:29.197Z,35.22
2023-02-26T22:45:55.922Z,36.71
2023-02-26T22:48:22.676Z,35.31
2023-02-26T22:50:50.776Z,34.92
2023-02-26T22:53:17.737Z,35.29
2023-02-26T22:55:44.461Z,34.99
2023-02-26T22:58:11.372Z,36.65
2023-02-26T23:00:38.130Z,38.44
2023-02-26T23:03:04.999Z,37.28
2023-02-26T23:05:31.744Z,36.16
2023-02-26T23:07:58.632Z,36.33
2023-02-26T23:10:25.493Z,36.40
2023-02-26T23:12:52.448Z,36.52
2023-02-26T23:15:19.482Z,35.61
2023-02-26T23:17:46.180Z,37.59
2023-02-26T23:20:14.785Z,36.16
2023-02-26T23:22:43.917Z,35.51
2023-02-26T23:25:12.185Z,35.14
2023-02-26T23:27:40.670Z,38.08
2023-02-26T23:30:08.360Z,38.01
2023-02-26T23:32:35.288Z,36.36
2023-02-26T23:35:02.168Z,35.85
2023-02-26T23:37:29.320Z,36.67
2023-02-26T23:39:56.943Z,36.05
2023-02-26T23:42:23.590Z,35.77
2023-02-26T23:44:50.431Z,36.08
2023-02-26T23:47:17.146Z,35.71
2023-02-26T23:49:43.967Z,37.66
2023-02-26T23:52:10.716Z,36.04
2023-02-26T23:54:39.816Z,35.54
2023-02-26T23:57:06.821Z,37.39
2023-02-26T23:59:33.904Z,36.78
